Time;durP1;ratioP1;P1;durP2;ratioP2;P2;SDS_P1;SDS_P2;PMS_P1;PMS_P2;Temp;Humidity;BMP_temperature;BMP_pressure;BME280_temperature;BME280_humidity;BME280_pressure;Samples;Min_cycle;Max_cycle;Signal;HPM_P1;HPM_P2
2023/01/03 00:00:52;;;;;;;3.50;1.63;;;;;;;10.74;63.05;100233.09;5147926;28;20477;-68
2023/01/03 00:03:42;;;;;;;1.83;1.20;;;;;;;10.58;64.67;100233.38;5137611;28;20047;-68
2023/01/03 00:06:41;;;;;;;2.38;1.30;;;;;;;10.68;64.03;100228.25;5132367;28;20599;-68
2023/01/03 00:09:32;;;;;;;1.88;1.20;;;;;;;10.76;63.39;100235.63;5174375;23;20058;-74
2023/01/03 00:12:22;;;;;;;1.90;1.15;;;;;;;10.72;63.59;100227.03;5165269;28;20393;-74
2023/01/03 00:15:19;;;;;;;1.70;1.13;;;;;;;10.68;63.62;100243.31;5159392;28;20526;-74
2023/01/03 00:18:09;;;;;;;1.15;1.08;;;;;;;10.69;64.08;100251.13;5153225;28;20069;-74
2023/01/03 00:21:03;;;;;;;2.33;0.93;;;;;;;10.71;63.69;100249.22;5137862;28;20137;-75
2023/01/03 00:23:53;;;;;;;2.63;1.30;;;;;;;10.68;64.06;100235.34;5137814;28;20492;-74
2023/01/03 00:26:44;;;;;;;1.50;1.30;;;;;;;10.64;63.94;100242.69;5138529;28;20050;-74
2023/01/03 00:29:35;;;;;;;1.35;1.20;;;;;;;10.66;63.82;100259.34;5141065;28;20425;-74
2023/01/03 00:32:25;;;;;;;2.85;1.10;;;;;;;10.70;63.50;100252.00;5136667;28;20062;-74
2023/01/03 00:35:15;;;;;;;3.47;1.05;;;;;;;10.63;63.96;100248.97;5141268;28;20521;-74
2023/01/03 00:38:05;;;;;;;1.50;1.33;;;;;;;10.47;64.59;100243.09;5134995;28;20478;-74
2023/01/03 00:41:07;;;;;;;1.70;1.05;;;;;;;10.66;63.64;100247.88;5129313;28;20042;-75
2023/01/03 00:43:57;;;;;;;3.67;0.90;;;;;;;10.67;64.19;100258.38;5137893;28;20058;-74
2023/01/03 00:46:48;;;;;;;2.95;1.58;;;;;;;10.61;63.76;100252.69;5140296;28;20509;-74
2023/01/03 00:49:38;;;;;;;1.40;1.17;;;;;;;10.66;63.50;100256.69;5122048;28;20117;-74
2023/01/03 00:52:28;;;;;;;4.05;1.30;;;;;;;10.61;63.96;100253.53;5135398;28;20058;-74
2023/01/03 00:55:18;;;;;;;3.78;1.08;;;;;;;10.56;63.25;100253.00;5140813;28;20070;-74
2023/01/03 00:58:08;;;;;;;1.88;0.95;;;;;;;10.60;63.84;100256.31;5139547;28;20281;-74
2023/01/03 01:01:13;;;;;;;1.48;0.93;;;;;;;10.54;64.18;100254.94;5135542;28;20057;-74
2023/01/03 01:04:12;;;;;;;1.58;1.17;;;;;;;10.62;63.68;100260.53;5142443;28;20053;-75
2023/01/03 01:07:03;;;;;;;1.33;0.90;;;;;;;10.50;63.92;100250.84;5142363;28;20049;-75
2023/01/03 01:09:53;;;;;;;0.80;0.80;;;;;;;10.62;63.97;100247.25;5143310;28;20053;-74
2023/01/03 01:12:46;;;;;;;2.53;1.02;;;;;;;10.60;63.29;100246.53;5139104;28;20054;-74
2023/01/03 01:15:37;;;;;;;1.25;0.68;;;;;;;10.64;63.24;100247.16;5141374;28;20428;-75
2023/01/03 01:18:28;;;;;;;1.83;1.00;;;;;;;10.54;63.43;100239.88;5137055;28;20349;-74
2023/01/03 01:21:21;;;;;;;1.70;0.93;;;;;;;10.61;62.98;100242.91;5144407;28;20088;-74
2023/01/03 01:24:12;;;;;;;2.07;0.80;;;;;;;10.44;63.28;100238.03;5149526;28;20422;-75
2023/01/03 01:27:07;;;;;;;2.75;1.00;;;;;;;10.57;62.52;100252.91;5132904;28;20322;-75
2023/01/03 01:29:57;;;;;;;1.23;1.05;;;;;;;10.46;63.19;100265.25;5140268;28;20073;-75
2023/01/03 01:32:46;;;;;;;2.58;0.93;;;;;;;10.03;64.79;100241.81;5142581;28;20053;-75
2023/01/03 01:35:36;;;;;;;2.95;1.05;;;;;;;10.25;63.73;100254.38;5144010;28;20146;-75
2023/01/03 01:38:26;;;;;;;2.25;0.80;;;;;;;10.39;63.58;100264.84;5140273;28;20496;-74
2023/01/03 01:44:36;;;;;;;2.10;1.00;;;;;;;10.25;63.41;100267.63;5137957;28;20529;-74
2023/01/03 01:44:42;;;;;;;6.28;1.23;;;;;;;10.30;63.69;100269.03;5137717;28;20061;-75
2023/01/03 01:47:43;;;;;;;1.02;0.80;;;;;;;10.26;63.00;100272.84;5140298;28;20074;-74
2023/01/03 01:50:39;;;;;;;3.58;1.00;;;;;;;10.39;63.12;100277.25;5131376;28;20129;-75
2023/01/03 01:53:33;;;;;;;5.53;1.20;;;;;;;10.35;63.28;100269.53;5135529;28;20057;-75
2023/01/03 01:56:35;;;;;;;2.22;1.10;;;;;;;10.40;63.08;100290.44;5137823;28;20146;-75
2023/01/03 01:59:27;;;;;;;1.58;0.90;;;;;;;10.23;63.46;100259.81;5139318;28;20101;-74
2023/01/03 02:02:19;;;;;;;2.20;1.02;;;;;;;10.40;63.25;100294.84;5128859;28;20418;-74
2023/01/03 02:05:10;;;;;;;1.73;1.20;;;;;;;10.37;63.41;100285.34;5113675;28;20098;-74
2023/01/03 02:08:01;;;;;;;2.35;1.10;;;;;;;10.35;63.48;100293.38;5141149;28;20054;-75
2023/01/03 02:11:23;;;;;;;1.63;1.10;;;;;;;10.28;63.08;100273.59;5141854;28;20062;-75
2023/01/03 02:14:38;;;;;;;1.88;0.90;;;;;;;10.19;63.92;100274.22;5142849;28;20061;-75
2023/01/03 02:17:58;;;;;;;3.30;0.88;;;;;;;10.19;63.98;100279.50;5142184;28;20051;-75
2023/01/03 02:21:17;;;;;;;3.40;0.88;;;;;;;10.15;63.62;100288.66;5142525;28;20181;-75
2023/01/03 02:24:34;;;;;;;2.60;0.80;;;;;;;10.15;64.29;100286.00;5137992;28;20571;-73
2023/01/03 02:28:01;;;;;;;2.15;1.20;;;;;;;10.12;63.96;100295.00;5143029;28;20152;-74
2023/01/03 02:30:58;;;;;;;1.58;0.93;;;;;;;9.96;64.10;100294.41;5138715;28;20306;-74
2023/01/03 02:34:13;;;;;;;3.38;1.15;;;;;;;9.98;64.33;100283.69;5143923;28;20062;-75
2023/01/03 02:37:17;;;;;;;;;;;;;;;9.97;63.76;100276.72;5145558;28;20184;-75
2023/01/03 02:40:25;;;;;;;1.65;1.10;;;;;;;9.85;64.24;100281.06;5140904;28;19992;-75
2023/01/03 02:43:29;;;;;;;1.45;1.10;;;;;;;9.71;63.91;100278.53;5141658;28;20054;-75
2023/01/03 02:46:51;;;;;;;1.85;1.00;;;;;;;9.64;64.20;100289.56;5158358;28;20073;-75
2023/01/03 02:49:49;;;;;;;2.78;1.58;;;;;;;9.59;64.27;100283.72;5155638;28;20148;-75
2023/01/03 02:52:42;;;;;;;2.85;1.50;;;;;;;9.51;64.46;100277.28;5148842;28;20137;-75
2023/01/03 02:55:35;;;;;;;2.33;1.42;;;;;;;9.43;64.36;100272.50;5146229;28;20059;-75
2023/01/03 02:58:30;;;;;;;1.48;1.15;;;;;;;9.47;64.04;100287.22;5138480;28;20434;-75
2023/01/03 03:01:23;;;;;;;2.58;1.25;;;;;;;9.40;64.27;100270.91;5143363;28;20138;-75
2023/01/03 03:04:15;;;;;;;2.97;1.10;;;;;;;9.38;63.84;100282.56;5144933;28;20140;-75
2023/01/03 03:07:22;;;;;;;2.28;1.20;;;;;;;9.32;64.03;100294.41;5140868;28;20058;-75
2023/01/03 03:13:35;;;;;;;2.17;1.20;;;;;;;9.12;64.52;100279.03;5142826;28;20069;-75
2023/01/03 03:16:46;;;;;;;2.10;1.10;;;;;;;9.14;64.39;100290.38;5134133;28;20095;-75
2023/01/03 03:26:20;;;;;;;3.83;1.20;;;;;;;9.03;65.51;100296.34;5142056;28;20062;-76
2023/01/03 03:29:15;;;;;;;0.95;0.80;;;;;;;8.99;65.10;100289.56;5141102;28;20428;-74
2023/01/03 03:32:05;;;;;;;2.13;1.15;;;;;;;8.89;65.51;100269.97;5139309;28;20061;-77
2023/01/03 03:34:58;;;;;;;1.20;0.82;;;;;;;8.94;65.60;100278.47;5141206;28;20062;-76
2023/01/03 03:37:53;;;;;;;9.70;1.47;;;;;;;8.84;65.64;100270.28;5142093;28;20104;-76
2023/01/03 03:47:47;;;;;;;3.97;1.50;;;;;;;8.78;67.15;100277.78;5137572;28;20051;-74
2023/01/03 03:50:48;;;;;;;5.38;1.20;;;;;;;8.80;66.69;100265.28;5144412;28;20797;-74
2023/01/03 03:53:42;;;;;;;2.70;1.42;;;;;;;8.64;66.60;100273.38;5140197;28;20061;-76
2023/01/03 03:56:34;;;;;;;2.40;1.50;;;;;;;8.46;66.53;100256.94;5144157;28;20098;-76
2023/01/03 03:59:26;;;;;;;2.10;1.38;;;;;;;8.49;66.35;100267.31;5145809;28;20047;-76
2023/01/03 04:02:18;;;;;;;1.63;1.20;;;;;;;8.56;65.91;100281.81;5131323;28;20787;-76
2023/01/03 04:05:11;;;;;;;1.88;1.15;;;;;;;8.47;65.50;100296.47;5139536;28;20053;-74
2023/01/03 04:08:01;;;;;;;2.25;1.33;;;;;;;8.37;66.60;100284.75;5124130;28;20528;-76
2023/01/03 04:11:04;;;;;;;3.00;1.58;;;;;;;8.37;67.02;100305.91;5139246;28;20125;-75
2023/01/03 04:13:54;;;;;;;4.03;1.73;;;;;;;8.34;67.15;100295.53;5135929;28;20062;-76
2023/01/03 04:16:44;;;;;;;4.03;2.03;;;;;;;8.52;66.45;100295.34;5139387;28;20477;-76
2023/01/03 04:19:35;;;;;;;3.22;2.03;;;;;;;8.27;66.73;100299.50;5139183;28;20054;-76
2023/01/03 04:22:25;;;;;;;4.95;2.10;;;;;;;8.07;66.63;100313.97;5131879;28;20126;-76
2023/01/03 04:25:15;;;;;;;6.28;1.95;;;;;;;7.93;67.07;100306.91;5137343;28;20069;-75
2023/01/03 04:28:05;;;;;;;6.22;2.20;;;;;;;7.93;66.92;100304.25;5137898;28;20070;-75
2023/01/03 04:30:54;;;;;;;3.05;2.10;;;;;;;7.84;66.19;100293.41;5135889;28;20061;-75
2023/01/03 04:33:45;;;;;;;3.08;2.10;;;;;;;7.87;66.60;100304.63;5139669;28;20054;-76
2023/01/03 04:36:35;;;;;;;4.22;2.22;;;;;;;7.81;69.58;100286.53;5137573;28;20054;-76
2023/01/03 04:39:25;;;;;;;5.90;2.45;;;;;;;8.07;68.27;100313.97;5138156;28;20658;-76
2023/01/03 04:45:24;;;;;;;3.53;2.15;;;;;;;8.01;68.20;100314.34;5158188;28;20576;-76
2023/01/03 04:48:15;;;;;;;5.78;2.30;;;;;;;7.74;68.48;100306.31;5156427;28;20058;-76
2023/01/03 04:51:05;;;;;;;2.85;2.38;;;;;;;7.73;68.09;100284.38;5131162;28;20058;-76
2023/01/03 04:53:55;;;;;;;4.38;2.20;;;;;;;7.76;67.42;100328.22;5134875;28;20053;-75
2023/01/03 04:56:45;;;;;;;2.60;2.00;;;;;;;7.63;67.65;100329.91;5139251;28;20135;-75
2023/01/03 04:59:35;;;;;;;3.70;2.17;;;;;;;7.50;68.12;100325.34;5139112;28;20076;-76
2023/01/03 05:02:25;;;;;;;4.53;2.58;;;;;;;7.41;68.00;100317.13;5136737;28;20421;-75
2023/01/03 05:05:16;;;;;;;3.92;2.10;;;;;;;7.50;67.98;100328.00;5140341;28;20650;-75
2023/01/03 05:08:07;;;;;;;3.08;1.75;;;;;;;7.44;68.19;100328.34;5137298;28;20082;-76
2023/01/03 05:10:57;;;;;;;2.10;1.80;;;;;;;7.22;67.40;100325.31;5131595;28;20565;-75
2023/01/03 05:13:47;;;;;;;3.95;2.33;;;;;;;7.31;68.84;100324.75;5130049;28;20506;-76
2023/01/03 05:16:37;;;;;;;3.42;2.33;;;;;;;7.34;67.84;100319.28;5135935;28;20063;-75
2023/01/03 05:19:28;;;;;;;5.72;2.55;;;;;;;7.17;68.36;100325.56;5140801;28;20579;-75
2023/01/03 05:28:37;;;;;;;5.50;2.45;;;;;;;7.20;68.88;100317.47;5136772;28;20278;-76
2023/01/03 05:31:27;;;;;;;3.67;2.70;;;;;;;7.00;69.13;100288.78;5139531;28;20424;-75
2023/01/03 05:34:18;;;;;;;5.20;2.70;;;;;;;7.24;69.02;100303.16;5143119;28;20346;-75
2023/01/03 05:37:08;;;;;;;6.35;3.22;;;;;;;7.17;68.01;100325.56;5140553;28;20059;-75
2023/01/03 05:39:58;;;;;;;3.90;2.75;;;;;;;7.07;69.05;100305.94;5144981;28;20205;-75
2023/01/03 05:42:48;;;;;;;6.80;2.72;;;;;;;7.10;68.95;100331.28;5143350;28;20053;-75
2023/01/03 05:45:38;;;;;;;4.40;3.00;;;;;;;7.09;68.98;100340.16;5150756;28;20062;-75
2023/01/03 05:48:28;;;;;;;3.50;2.63;;;;;;;7.01;68.99;100332.66;5140275;28;20050;-75
2023/01/03 05:51:18;;;;;;;5.05;3.08;;;;;;;7.18;69.05;100352.78;5146575;28;20054;-75
2023/01/03 05:54:14;;;;;;;4.32;3.00;;;;;;;7.05;69.39;100347.34;5143275;28;20046;-75
2023/01/03 05:57:04;;;;;;;7.53;2.90;;;;;;;6.96;69.12;100351.38;5138834;28;20326;-75
2023/01/03 05:59:55;;;;;;;9.95;3.50;;;;;;;6.97;68.78;100350.44;5144440;28;20160;-75
2023/01/03 06:02:45;;;;;;;4.75;3.00;;;;;;;7.02;69.78;100348.41;5143917;28;20065;-75
2023/01/03 06:05:35;;;;;;;8.23;3.25;;;;;;;7.09;69.02;100354.19;5143696;28;20505;-75
2023/01/03 06:08:25;;;;;;;4.95;3.10;;;;;;;7.17;69.23;100359.00;5140747;28;20113;-76
2023/01/03 06:11:17;;;;;;;7.38;3.20;;;;;;;6.95;69.54;100360.22;5138065;28;20077;-76
2023/01/03 06:14:07;;;;;;;6.55;3.13;;;;;;;6.86;69.79;100341.47;5144697;28;20068;-75
2023/01/03 06:20:07;;;;;;;7.32;3.55;;;;;;;6.91;71.05;100376.31;5142999;28;20085;-75
2023/01/03 06:22:57;;;;;;;6.07;3.47;;;;;;;6.90;69.67;100375.47;5142125;28;20178;-76
2023/01/03 06:25:47;;;;;;;5.25;3.45;;;;;;;6.90;69.80;100377.25;5142242;28;20053;-75
2023/01/03 06:28:37;;;;;;;4.70;3.15;;;;;;;6.67;68.96;100339.84;5136267;28;20737;-75
2023/01/03 06:31:27;;;;;;;6.35;3.13;;;;;;;6.85;69.16;100372.22;5146502;28;20054;-75
2023/01/03 06:34:17;;;;;;;5.50;3.30;;;;;;;6.67;69.19;100379.38;5135837;28;20443;-75
2023/01/03 06:37:08;;;;;;;9.63;3.00;;;;;;;6.64;68.94;100373.44;5141517;28;21283;-76
2023/01/03 06:39:58;;;;;;;4.93;3.33;;;;;;;6.79;69.52;100378.72;5142562;28;20058;-75
2023/01/03 06:42:48;;;;;;;6.72;3.65;;;;;;;6.55;68.42;100383.53;5140079;28;20047;-76
2023/01/03 06:55:06;;;;;;;5.75;3.50;;;;;;;6.38;70.07;100390.66;5141343;28;20054;-75
2023/01/03 06:57:56;;;;;;;6.32;4.05;;;;;;;6.44;69.38;100396.47;5144887;28;20406;-75
2023/01/03 07:00:46;;;;;;;5.25;3.70;;;;;;;6.37;70.07;100384.56;5140023;28;20042;-75
2023/01/03 07:03:36;;;;;;;6.47;3.85;;;;;;;6.28;69.34;100395.56;5139756;28;20054;-75
2023/01/03 07:06:27;;;;;;;6.38;4.00;;;;;;;6.33;70.45;100399.69;5143625;28;20170;-76
2023/01/03 07:09:18;;;;;;;9.18;3.45;;;;;;;6.23;69.22;100401.09;5130504;28;20054;-75
2023/01/03 07:15:17;;;;;;;8.25;3.78;;;;;;;5.93;69.43;100389.53;5141506;28;20117;-75
2023/01/03 07:18:08;;;;;;;5.93;3.38;;;;;;;6.00;69.28;100401.47;5143623;28;20053;-76
2023/01/03 07:20:58;;;;;;;8.50;3.90;;;;;;;5.96;69.32;100400.78;5147746;28;20150;-75
2023/01/03 07:23:48;;;;;;;14.43;3.88;;;;;;;5.97;70.11;100410.38;5143424;28;20053;-75
2023/01/03 07:26:39;;;;;;;8.90;5.55;;;;;;;5.70;71.35;100381.03;5142887;28;20329;-75
2023/01/03 07:29:29;;;;;;;10.60;5.95;;;;;;;5.96;70.28;100413.94;5143161;28;20043;-76
2023/01/03 07:32:19;;;;;;;9.95;6.60;;;;;;;5.86;70.40;100399.50;5143988;28;20197;-75
2023/01/03 07:35:09;;;;;;;11.85;6.20;;;;;;;6.03;70.59;100417.97;5142530;28;20046;-76
2023/01/03 07:37:59;;;;;;;11.73;5.57;;;;;;;6.18;70.06;100418.06;5146847;28;20490;-75
2023/01/03 07:40:49;;;;;;;12.57;4.97;;;;;;;6.01;70.95;100419.81;5140806;28;20057;-75
2023/01/03 07:43:41;;;;;;;10.15;5.15;;;;;;;5.95;70.86;100414.84;5144396;28;20141;-75
2023/01/03 07:46:33;;;;;;;14.13;5.65;;;;;;;5.89;70.84;100410.75;5144510;28;20109;-75
2023/01/03 07:49:24;;;;;;;10.48;5.13;;;;;;;6.03;69.81;100433.75;5146584;28;20053;-76
2023/01/03 07:52:14;;;;;;;9.70;5.57;;;;;;;6.11;70.06;100441.25;5146498;28;20074;-75
2023/01/03 07:55:05;;;;;;;12.40;4.93;;;;;;;6.07;70.88;100431.81;5144093;28;20054;-76
2023/01/03 07:57:55;;;;;;;10.57;5.55;;;;;;;6.09;70.60;100443.97;5133791;28;20137;-75
2023/01/03 08:00:45;;;;;;;12.55;5.47;;;;;;;6.23;70.71;100445.88;5141454;28;20507;-72
2023/01/03 08:03:36;;;;;;;8.55;5.22;;;;;;;6.31;70.30;100458.63;5135726;28;20789;-73
2023/01/03 08:06:26;;;;;;;13.02;5.47;;;;;;;6.31;70.47;100448.09;5127698;28;20054;-74
2023/01/03 08:15:34;;;;;;;14.07;7.10;;;;;;;6.52;69.37;100452.25;5134770;28;20421;-72
2023/01/03 08:18:26;;;;;;;10.50;5.97;;;;;;;6.72;70.42;100440.63;5137528;28;20125;-72
2023/01/03 08:21:16;;;;;;;18.60;7.45;;;;;;;6.74;69.83;100451.06;5137652;28;20129;-72
2023/01/03 08:24:07;;;;;;;21.00;7.03;;;;;;;6.76;70.22;100446.56;5138263;28;20050;-71
2023/01/03 08:26:57;;;;;;;17.35;8.63;;;;;;;6.81;70.03;100457.69;5141235;28;20058;-71
2023/01/03 08:29:47;;;;;;;16.63;9.18;;;;;;;7.01;69.84;100459.25;5139477;28;20046;-73
2023/01/03 08:32:37;;;;;;;12.02;7.53;;;;;;;6.21;71.17;100449.53;5135372;28;20292;-71
2023/01/03 08:35:31;;;;;;;9.63;5.63;;;;;;;6.77;71.48;100467.56;5139599;28;20049;-71
2023/01/03 08:38:29;;;;;;;16.65;5.63;;;;;;;6.77;71.05;100461.44;5140958;28;20057;-70
2023/01/03 08:41:24;;;;;;;16.83;6.47;;;;;;;6.99;69.84;100472.53;5137694;28;20429;-71
2023/01/03 08:44:15;;;;;;;18.25;6.00;;;;;;;6.90;70.36;100465.13;5135867;28;20516;-71
2023/01/03 08:47:07;;;;;;;17.63;5.93;;;;;;;6.88;69.57;100458.22;5136158;28;20334;-71
2023/01/03 08:49:58;;;;;;;10.27;5.65;;;;;;;7.00;69.68;100476.84;5135536;28;20038;-72
2023/01/03 08:52:48;;;;;;;12.23;5.80;;;;;;;7.13;68.83;100489.38;5136795;28;20078;-71
2023/01/03 08:55:39;;;;;;;11.02;5.90;;;;;;;7.10;70.01;100489.53;5137129;28;20059;-72
2023/01/03 08:58:29;;;;;;;12.82;6.38;;;;;;;7.34;69.42;100493.44;5132277;28;20129;-70
2023/01/03 09:01:19;;;;;;;13.85;5.45;;;;;;;7.40;69.48;100474.63;5135483;28;20073;-71
2023/01/03 09:04:09;;;;;;;15.20;6.75;;;;;;;7.49;68.59;100489.94;5143065;28;20130;-70
2023/01/03 09:07:00;;;;;;;16.10;6.20;;;;;;;7.44;69.08;100494.59;5139722;28;20050;-70
2023/01/03 09:09:50;;;;;;;10.23;5.80;;;;;;;7.49;69.01;100495.22;5147999;28;20049;-70
2023/01/03 09:12:41;;;;;;;11.88;6.95;;;;;;;7.38;69.57;100500.22;5150077;28;20055;-71
2023/01/03 09:15:31;;;;;;;10.23;6.28;;;;;;;7.56;69.54;100473.75;5147089;28;20101;-74
2023/01/03 09:18:21;;;;;;;15.02;7.10;;;;;;;7.82;69.41;100488.94;5147403;28;20516;-69
2023/01/03 09:21:11;;;;;;;10.25;6.50;;;;;;;7.97;68.85;100501.22;5146278;28;20433;-69
2023/01/03 09:24:01;;;;;;;13.57;6.28;;;;;;;7.78;69.14;100508.50;5145432;28;20209;-70
2023/01/03 09:26:52;;;;;;;11.02;6.75;;;;;;;7.81;69.45;100513.59;5139796;28;20077;-71
2023/01/03 09:29:45;;;;;;;13.38;6.20;;;;;;;7.93;68.16;100510.25;5152724;28;21275;-70
2023/01/03 09:32:35;;;;;;;13.38;7.03;;;;;;;8.04;69.17;100511.41;5150665;28;20409;-71
2023/01/03 09:35:25;;;;;;;17.85;6.85;;;;;;;8.06;68.83;100514.84;5150114;28;20069;-70
2023/01/03 09:38:15;;;;;;;19.50;6.55;;;;;;;7.84;69.16;100521.34;5137465;28;20189;-71
2023/01/03 09:41:11;;;;;;;18.40;7.75;;;;;;;7.83;68.86;100521.47;5136512;28;20065;-72
2023/01/03 09:44:04;;;;;;;16.92;7.40;;;;;;;7.92;68.64;100521.78;5139371;28;20325;-70
2023/01/03 09:46:54;;;;;;;12.88;7.68;;;;;;;7.95;68.82;100503.13;5139887;28;20053;-70
2023/01/03 09:49:44;;;;;;;18.17;8.52;;;;;;;7.94;68.61;100500.53;5137188;28;20120;-69
2023/01/03 10:06:11;;;;;;;13.90;7.95;;;;;;;8.46;68.17;100511.53;5148044;28;20069;-69
2023/01/03 10:09:11;;;;;;;12.25;6.35;;;;;;;8.33;70.08;100505.25;5141185;28;20200;-70
2023/01/03 10:12:17;;;;;;;12.73;7.13;;;;;;;8.56;68.64;100511.81;5134035;28;20051;-69
2023/01/03 10:15:28;;;;;;;11.98;6.53;;;;;;;8.56;68.13;100513.63;5138923;28;20058;-69
2023/01/03 10:18:35;;;;;;;11.10;6.30;;;;;;;8.50;68.01;100498.13;5130378;28;20170;-69
2023/01/03 10:21:49;;;;;;;10.75;6.50;;;;;;;8.49;68.51;100510.50;5128512;28;20062;-69
2023/01/03 10:24:46;;;;;;;9.30;6.20;;;;;;;8.41;67.88;100513.63;5134890;28;20062;-69
2023/01/03 10:27:43;;;;;;;10.95;6.63;;;;;;;8.34;68.54;100516.66;5132786;28;20054;-69
2023/01/03 10:30:49;;;;;;;16.02;7.05;;;;;;;8.37;68.56;100519.97;5132357;28;20054;-70
2023/01/03 10:33:48;;;;;;;12.90;6.40;;;;;;;8.10;68.98;100496.06;5129150;28;20047;-70
2023/01/03 10:36:39;;;;;;;11.77;6.38;;;;;;;8.36;67.82;100515.63;5123578;28;20062;-70
2023/01/03 10:39:30;;;;;;;12.65;7.30;;;;;;;8.36;68.55;100498.94;5124052;28;20051;-69
2023/01/03 10:42:21;;;;;;;10.45;6.40;;;;;;;8.47;67.90;100513.22;5129325;28;20488;-70
2023/01/03 10:45:20;;;;;;;11.27;7.05;;;;;;;8.57;68.15;100507.38;5131839;28;20078;-70
2023/01/03 10:48:13;;;;;;;11.02;6.00;;;;;;;8.57;68.89;100491.50;5128475;28;20054;-70
2023/01/03 10:51:23;;;;;;;12.38;6.43;;;;;;;8.88;68.07;100495.78;5123734;28;20055;-68
2023/01/03 10:54:16;;;;;;;8.15;5.95;;;;;;;8.99;68.90;100492.44;5130793;28;20089;-71
2023/01/03 10:57:07;;;;;;;14.02;6.32;;;;;;;9.52;67.43;100491.63;5127776;28;20078;-70
2023/01/03 10:59:57;;;;;;;11.90;5.72;;;;;;;9.61;67.25;100487.53;5128955;28;20054;-70
2023/01/03 11:02:48;;;;;;;9.32;5.93;;;;;;;9.74;65.93;100488.44;5125844;28;20070;-70
2023/01/03 11:05:40;;;;;;;12.48;5.90;;;;;;;9.75;65.98;100470.72;5134234;28;20069;-71
2023/01/03 11:08:44;;;;;;;8.68;5.65;;;;;;;9.83;66.08;100479.00;5133584;28;20105;-70
2023/01/03 11:11:40;;;;;;;8.68;5.82;;;;;;;10.05;65.16;100467.81;5134489;28;20202;-70
2023/01/03 11:14:30;;;;;;;8.68;5.25;;;;;;;10.27;63.95;100467.22;5151279;28;21014;-70
2023/01/03 11:17:22;;;;;;;9.05;5.40;;;;;;;10.35;64.35;100476.34;5133985;28;20058;-70
2023/01/03 11:20:20;;;;;;;7.03;4.72;;;;;;;10.35;63.83;100478.13;5133311;28;20066;-69
2023/01/03 11:23:28;;;;;;;6.82;4.93;;;;;;;10.26;64.41;100476.13;5128298;28;20433;-72
2023/01/03 11:26:32;;;;;;;7.97;4.97;;;;;;;10.18;64.88;100481.06;5136999;28;20133;-73
2023/01/03 11:29:41;;;;;;;5.63;4.20;;;;;;;10.31;64.69;100474.84;5126542;28;20054;-72
2023/01/03 11:33:11;;;;;;;7.93;4.80;;;;;;;10.42;63.33;100474.09;5134908;28;20640;-72
2023/01/03 11:36:08;;;;;;;5.82;3.83;;;;;;;10.20;64.02;100471.19;5123793;28;20521;-70
2023/01/03 11:39:20;;;;;;;5.30;4.10;;;;;;;10.17;64.99;100466.13;5126255;28;20506;-69
2023/01/03 11:42:16;;;;;;;13.52;4.65;;;;;;;10.27;64.49;100468.06;5119906;28;20055;-70
2023/01/03 11:45:31;;;;;;;6.60;4.55;;;;;;;10.24;64.44;100462.09;5123014;28;20090;-69
2023/01/03 11:48:49;;;;;;;6.32;4.43;;;;;;;10.24;64.31;100462.09;5127030;28;20133;-69
2023/01/03 11:52:11;;;;;;;7.38;4.57;;;;;;;10.31;64.05;100450.16;5126273;28;20174;-73
2023/01/03 11:55:21;;;;;;;6.65;4.20;;;;;;;10.44;63.36;100447.50;5126576;28;20038;-71
2023/01/03 11:58:47;;;;;;;7.15;4.80;;;;;;;10.55;63.36;100445.78;5125578;28;20058;-71
2023/01/03 12:01:58;;;;;;;8.50;4.63;;;;;;;10.61;64.00;100443.66;5135741;28;20069;-71
2023/01/03 12:05:06;;;;;;;6.78;4.10;;;;;;;10.54;63.54;100437.94;5125524;28;20062;-72
2023/01/03 12:08:02;;;;;;;6.18;4.10;;;;;;;10.40;63.75;100449.50;5129794;28;20064;-70
2023/01/03 12:11:00;;;;;;;7.75;4.18;;;;;;;10.55;63.20;100436.97;5127155;28;20053;-72
2023/01/03 12:14:12;;;;;;;6.28;4.18;;;;;;;10.51;63.38;100440.81;5125699;28;20560;-72
2023/01/03 12:17:12;;;;;;;8.52;4.05;;;;;;;10.60;61.96;100434.00;5131984;28;20395;-71
2023/01/03 12:20:14;;;;;;;4.85;3.60;;;;;;;10.55;62.14;100439.63;5186172;23;20241;-68
2023/01/03 12:23:14;;;;;;;7.60;4.03;;;;;;;10.49;62.47;100437.41;5150503;28;20161;-68
2023/01/03 12:26:08;;;;;;;12.93;3.47;;;;;;;10.51;62.52;100432.84;5151714;28;20070;-69
2023/01/03 12:29:23;;;;;;;7.43;3.60;;;;;;;10.75;61.01;100432.91;5146788;28;20484;-72
2023/01/03 12:32:38;;;;;;;4.25;3.38;;;;;;;10.87;61.46;100428.53;5127338;28;20181;-69
2023/01/03 12:35:55;;;;;;;8.63;3.65;;;;;;;10.87;61.47;100413.44;5131359;28;20127;-71
2023/01/03 12:39:14;;;;;;;10.10;3.70;;;;;;;10.76;61.77;100403.63;5133314;28;20078;-69
2023/01/03 12:42:10;;;;;;;11.38;4.43;;;;;;;10.84;61.01;100403.06;5136044;28;20057;-71
2023/01/03 12:45:06;;;;;;;5.75;3.20;;;;;;;10.90;61.21;100415.88;5133660;28;20057;-70
2023/01/03 12:48:13;;;;;;;6.15;3.30;;;;;;;11.03;60.61;100418.50;5132109;28;20054;-69
2023/01/03 12:51:03;;;;;;;7.18;4.05;;;;;;;10.99;60.76;100411.69;5129595;28;20118;-70
2023/01/03 12:54:02;;;;;;;8.98;3.75;;;;;;;11.00;59.61;100416.06;5134808;28;20055;-70
2023/01/03 12:57:37;;;;;;;8.13;3.45;;;;;;;10.90;60.02;100407.09;5133920;28;20054;-69
2023/01/03 13:01:05;;;;;;;6.03;3.22;;;;;;;10.93;59.96;100410.38;5145648;28;20126;-70
2023/01/03 13:04:07;;;;;;;4.30;3.10;;;;;;;10.81;60.20;100408.59;5135487;28;20493;-70
2023/01/03 13:07:14;;;;;;;5.60;3.17;;;;;;;10.91;60.23;100408.78;5134859;28;20082;-72
2023/01/03 13:10:08;;;;;;;8.57;3.33;;;;;;;10.97;60.51;100403.88;5127363;28;20090;-75
2023/01/03 13:13:00;;;;;;;4.72;3.13;;;;;;;11.01;60.64;100407.97;5134990;28;20189;-70
2023/01/03 13:15:52;;;;;;;4.60;2.92;;;;;;;11.00;59.87;100387.72;5133862;28;20051;-69
2023/01/03 13:18:42;;;;;;;7.15;3.58;;;;;;;11.02;59.82;100400.88;5139099;28;20051;-70
2023/01/03 13:21:51;;;;;;;5.70;3.20;;;;;;;11.13;59.39;100397.44;5133938;28;20062;-70
2023/01/03 13:24:50;;;;;;;4.03;3.05;;;;;;;11.28;59.50;100396.28;5133247;28;20049;-69
2023/01/03 13:27:48;;;;;;;6.70;3.22;;;;;;;11.27;59.22;100400.75;5135335;28;20061;-70
2023/01/03 13:30:39;;;;;;;6.30;3.00;;;;;;;11.24;59.58;100392.19;5134116;28;20592;-70
2023/01/03 13:33:52;;;;;;;5.22;3.13;;;;;;;11.43;58.86;100389.84;5138957;28;20051;-67
2023/01/03 13:37:04;;;;;;;6.85;3.67;;;;;;;11.31;59.98;100387.25;5136053;28;20409;-70
2023/01/03 13:40:09;;;;;;;4.82;3.55;;;;;;;11.25;59.80;100392.03;5135622;28;20061;-69
2023/01/03 13:43:00;;;;;;;;;;;;;;;11.32;59.07;100389.78;5132454;28;20240;-69
2023/01/03 13:45:53;;;;;;;5.75;3.17;;;;;;;11.44;59.06;100385.38;5134981;28;19928;-70
2023/01/03 13:49:00;;;;;;;5.03;2.97;;;;;;;11.43;58.63;100383.69;5131464;28;20053;-70
2023/01/03 13:51:56;;;;;;;4.15;2.85;;;;;;;11.26;58.92;100385.78;5133397;28;20053;-70
2023/01/03 13:54:57;;;;;;;9.18;3.20;;;;;;;11.43;57.86;100384.53;5136547;28;20169;-69
2023/01/03 13:57:52;;;;;;;5.32;2.85;;;;;;;11.45;57.55;100387.06;5138127;28;20069;-68
2023/01/03 14:00:42;;;;;;;6.85;2.53;;;;;;;11.40;58.00;100383.91;5137885;28;20125;-69
2023/01/03 14:04:14;;;;;;;6.43;3.08;;;;;;;11.39;57.73;100383.06;5140292;28;20073;-69
2023/01/03 14:07:14;;;;;;;7.55;2.70;;;;;;;11.31;58.76;100381.94;5138883;28;20094;-68
2023/01/03 14:10:33;;;;;;;4.95;2.63;;;;;;;11.17;59.32;100386.47;5134998;28;20181;-69
2023/01/03 14:13:57;;;;;;;4.35;2.60;;;;;;;10.96;60.13;100393.34;5139900;28;20066;-70
2023/01/03 14:16:51;;;;;;;4.95;2.88;;;;;;;11.11;59.49;100392.22;5140851;28;20501;-69
2023/01/03 14:19:49;;;;;;;5.97;2.80;;;;;;;10.99;60.68;100390.47;5137372;28;20622;-70
2023/01/03 14:22:43;;;;;;;8.68;2.90;;;;;;;10.86;61.19;100389.66;5136754;28;20504;-71
2023/01/03 14:25:35;;;;;;;6.90;3.25;;;;;;;10.89;61.42;100389.44;5138080;28;20501;-71
2023/01/03 14:28:30;;;;;;;6.70;3.00;;;;;;;10.90;61.77;100392.00;5129563;28;20063;-71
2023/01/03 14:31:26;;;;;;;7.65;2.63;;;;;;;10.69;61.69;100394.38;5132727;28;20193;-69
2023/01/03 14:34:39;;;;;;;4.28;2.58;;;;;;;10.63;62.32;100389.53;5137737;28;20054;-69
2023/01/03 14:37:33;;;;;;;10.18;3.78;;;;;;;10.48;62.49;100380.03;5133771;28;20046;-68
2023/01/03 14:40:24;;;;;;;7.72;3.20;;;;;;;10.54;62.19;100392.84;5132535;28;20046;-69
2023/01/03 14:43:14;;;;;;;6.45;4.15;;;;;;;10.51;62.03;100401.03;5138750;28;20084;-70
2023/01/03 14:46:11;;;;;;;8.95;3.92;;;;;;;10.57;60.93;100400.59;5134103;28;20054;-70